createdAt,value
2019-05-05T00:02:30.566Z,11.85
2019-05-05T00:05:04.928Z,11.25
2019-05-05T00:07:36.583Z,11.08
2019-05-05T00:10:10.655Z,15.23
2019-05-05T00:12:46.421Z,11.12
2019-05-05T00:15:28.453Z,13.25
2019-05-05T00:18:00.260Z,13.72
2019-05-05T00:20:31.385Z,13.40
2019-05-05T00:23:02.694Z,15.30
2019-05-05T00:25:34.320Z,13.05
2019-05-05T00:28:08.211Z,13.95
2019-05-05T00:30:39.659Z,14.70
2019-05-05T00:33:14.479Z,12.43
2019-05-05T00:35:45.900Z,15.98
2019-05-05T00:38:17.312Z,12.20
2019-05-05T00:40:49.083Z,12.45
2019-05-05T00:43:21.726Z,14.65
2019-05-05T00:45:56.360Z,12.63
2019-05-05T00:48:31.780Z,13.70
2019-05-05T00:51:04.646Z,15.93
2019-05-05T00:53:36.156Z,13.93
2019-05-05T00:56:07.547Z,14.03
2019-05-05T00:58:41.557Z,17.42
2019-05-05T01:01:34.306Z,13.93
2019-05-05T01:04:07.182Z,11.90
2019-05-05T01:06:38.429Z,17.60
2019-05-05T01:09:11.240Z,16.50
2019-05-05T01:11:44.646Z,14.73
2019-05-05T01:14:17.227Z,15.18
2019-05-05T01:16:48.542Z,18.67
2019-05-05T01:19:24.303Z,15.75
2019-05-05T01:21:55.882Z,16.97
2019-05-05T01:24:30.121Z,19.00
2019-05-05T01:27:01.319Z,18.45
2019-05-05T01:29:34.657Z,17.32
2019-05-05T01:32:07.644Z,19.35
2019-05-05T01:34:41.215Z,15.68
2019-05-05T01:37:16.597Z,17.77
2019-05-05T01:39:50.032Z,21.52
2019-05-05T01:42:22.224Z,18.27
2019-05-05T01:44:55.301Z,26.60
2019-05-05T01:47:29.163Z,22.20
2019-05-05T01:50:08.220Z,33.98
2019-05-05T01:52:34.445Z,25.97
2019-05-05T01:55:06.618Z,24.18
2019-05-05T01:57:37.981Z,31.77
2019-05-05T02:00:10.023Z,30.23
2019-05-05T02:02:44.731Z,31.80
2019-05-05T02:05:20.357Z,37.33
2019-05-05T02:07:55.148Z,33.10
2019-05-05T02:10:29.389Z,48.63
2019-05-05T02:13:00.656Z,41.37
2019-05-05T02:15:34.179Z,50.25
2019-05-05T02:18:04.949Z,45.25
2019-05-05T02:20:54.426Z,44.27
2019-05-05T02:23:26.843Z,56.05
2019-05-05T02:25:58.605Z,46.28
2019-05-05T02:28:31.550Z,47.70
2019-05-05T02:31:06.279Z,46.42
2019-05-05T02:33:37.999Z,48.78
2019-05-05T02:36:09.363Z,58.55
2019-05-05T02:38:40.699Z,58.38
2019-05-05T02:41:15.303Z,49.58
2019-05-05T02:43:45.329Z,55.52
2019-05-05T02:46:25.545Z,56.75
2019-05-05T02:48:56.989Z,63.83
2019-05-05T02:51:28.346Z,61.90
2019-05-05T02:54:04.273Z,70.17
2019-05-05T02:56:43.729Z,67.37
2019-05-05T02:59:16.870Z,62.10
2019-05-05T03:01:53.965Z,64.60
2019-05-05T03:04:26.399Z,67.05
2019-05-05T03:06:57.645Z,69.27
2019-05-05T03:09:28.904Z,63.38
2019-05-05T03:12:04.763Z,54.38
2019-05-05T03:14:37.354Z,52.98
2019-05-05T03:17:14.249Z,52.83
2019-05-05T03:19:47.671Z,45.15
2019-05-05T03:22:20.164Z,45.25
2019-05-05T03:24:54.115Z,41.42
2019-05-05T03:27:27.997Z,42.15
2019-05-05T03:30:00.584Z,37.70
2019-05-05T03:32:32.014Z,39.18
2019-05-05T03:35:04.319Z,42.83
2019-05-05T03:37:36.743Z,43.00
2019-05-05T03:40:09.594Z,37.05
2019-05-05T03:42:48.400Z,41.35
2019-05-05T03:45:25.348Z,38.80
2019-05-05T03:47:56.606Z,42.93
2019-05-05T03:50:27.814Z,48.45
2019-05-05T03:52:59.055Z,41.15
2019-05-05T03:55:34.449Z,34.30
2019-05-05T03:58:07.300Z,41.27
2019-05-05T04:00:54.801Z,44.83
2019-05-05T04:03:26.479Z,44.23
2019-05-05T04:05:59.464Z,37.83
2019-05-05T04:08:33.776Z,42.80
2019-05-05T04:11:05.094Z,34.18
2019-05-05T04:13:36.482Z,33.48
2019-05-05T04:16:20.612Z,27.15
2019-05-05T04:18:55.030Z,28.42
2019-05-05T04:21:33.571Z,25.43
2019-05-05T04:24:01.312Z,27.48
2019-05-05T04:26:33.538Z,25.77
2019-05-05T04:29:06.728Z,21.85
2019-05-05T04:31:38.128Z,29.87
2019-05-05T04:34:10.066Z,24.75
2019-05-05T04:36:41.342Z,23.42
2019-05-05T04:39:14.516Z,29.20
2019-05-05T04:41:45.941Z,28.20
2019-05-05T04:44:18.075Z,31.57
2019-05-05T04:46:54.464Z,25.23
2019-05-05T04:49:44.497Z,28.20
2019-05-05T04:52:17.730Z,29.60
2019-05-05T04:54:52.452Z,24.18
2019-05-05T04:57:25.441Z,20.88
2019-05-05T04:59:57.955Z,20.23
2019-05-05T05:02:34.119Z,19.55
2019-05-05T05:05:14.582Z,23.55
2019-05-05T05:07:48.677Z,20.92
2019-05-05T05:10:20.018Z,19.98
2019-05-05T05:12:53.874Z,21.10
2019-05-05T05:15:25.032Z,22.73
2019-05-05T05:17:58.878Z,24.52
2019-05-05T05:20:30.771Z,28.80
2019-05-05T05:23:06.371Z,18.27
2019-05-05T05:25:37.736Z,19.60
2019-05-05T05:28:10.107Z,22.10
2019-05-05T05:30:45.114Z,17.52
2019-05-05T05:33:20.604Z,22.87
2019-05-05T05:35:54.617Z,18.27
2019-05-05T05:38:26.030Z,23.87
2019-05-05T05:41:07.532Z,17.00
2019-05-05T05:43:44.039Z,20.15
2019-05-05T05:46:26.163Z,15.60
2019-05-05T05:49:04.762Z,14.10
2019-05-05T05:51:37.396Z,16.35
2019-05-05T05:54:08.648Z,21.35
2019-05-05T05:56:39.966Z,18.90
2019-05-05T05:59:11.318Z,14.13
2019-05-05T06:01:43.732Z,17.67
2019-05-05T06:04:15.407Z,23.25
2019-05-05T06:06:49.128Z,20.92
2019-05-05T06:09:25.410Z,27.15
2019-05-05T06:11:56.691Z,23.32
2019-05-05T06:14:29.360Z,18.20
2019-05-05T06:17:01.414Z,19.62
2019-05-05T06:19:33.811Z,12.40
2019-05-05T06:22:07.133Z,17.37
2019-05-05T06:24:38.524Z,12.28
2019-05-05T06:27:09.766Z,20.17
2019-05-05T06:29:44.079Z,20.43
2019-05-05T06:32:15.240Z,21.25
2019-05-05T06:34:46.511Z,15.55
2019-05-05T06:37:17.897Z,20.80
2019-05-05T06:39:50.696Z,18.50
2019-05-05T06:42:34.252Z,14.93
2019-05-05T06:45:09.124Z,19.57
2019-05-05T06:47:44.497Z,23.52
2019-05-05T06:50:21.130Z,19.25
2019-05-05T06:52:57.202Z,15.15
2019-05-05T06:55:28.614Z,15.90
2019-05-05T06:57:59.897Z,18.77
2019-05-05T07:00:34.964Z,20.95
2019-05-05T07:03:07.935Z,22.27
2019-05-05T07:05:39.372Z,18.73
2019-05-05T07:08:11.169Z,20.82
2019-05-05T07:10:44.555Z,30.85
2019-05-05T07:13:36.911Z,15.40
2019-05-05T07:16:12.304Z,16.15
2019-05-05T07:18:44.595Z,14.95
2019-05-05T07:21:16.124Z,19.10
2019-05-05T07:23:47.975Z,15.90
2019-05-05T07:26:19.219Z,12.95
2019-05-05T07:28:54.153Z,18.75
2019-05-05T07:31:26.130Z,11.03
2019-05-05T07:33:57.463Z,10.78
2019-05-05T07:36:34.077Z,14.07
2019-05-05T07:39:07.700Z,10.28
2019-05-05T07:41:40.650Z,14.45
2019-05-05T07:44:23.483Z,16.20
2019-05-05T07:46:44.938Z,10.95
2019-05-05T07:49:16.623Z,17.02
2019-05-05T07:51:48.073Z,19.87
2019-05-05T07:54:19.485Z,20.80
2019-05-05T07:56:53.894Z,8.90
2019-05-05T07:59:25.156Z,11.40
2019-05-05T08:01:56.355Z,22.82
2019-05-05T08:04:27.563Z,12.43
2019-05-05T08:06:58.695Z,8.90
2019-05-05T08:09:30.086Z,17.10
2019-05-05T08:12:01.393Z,9.25
2019-05-05T08:14:33.706Z,9.63
2019-05-05T08:17:24.929Z,6.72
2019-05-05T08:20:04.179Z,10.20
2019-05-05T08:22:35.904Z,4.75
2019-05-05T08:25:11.205Z,11.75
2019-05-05T08:27:50.454Z,15.83
2019-05-05T08:30:41.686Z,21.10
2019-05-05T08:33:14.039Z,13.18
2019-05-05T08:38:27.597Z,7.53
2019-05-05T08:40:59.921Z,6.25
2019-05-05T08:43:31.221Z,5.55
2019-05-05T08:46:04.673Z,7.08
2019-05-05T08:48:36.547Z,12.60
2019-05-05T08:51:07.708Z,7.08
2019-05-05T08:53:44.780Z,12.63
2019-05-05T08:56:11.838Z,6.28
2019-05-05T08:58:43.838Z,7.55
2019-05-05T09:01:15.338Z,16.55
2019-05-05T09:03:47.077Z,9.83
2019-05-05T09:06:18.745Z,8.23
2019-05-05T09:08:52.228Z,7.17
2019-05-05T09:11:24.403Z,7.65
2019-05-05T09:13:56.564Z,9.95
2019-05-05T09:16:27.828Z,7.55
2019-05-05T09:19:00.699Z,4.25
2019-05-05T09:21:34.358Z,9.15
2019-05-05T09:24:18.527Z,7.47
2019-05-05T09:26:51.485Z,7.65
2019-05-05T09:29:24.520Z,7.60
2019-05-05T09:31:55.871Z,15.28
2019-05-05T09:34:27.160Z,9.40
2019-05-05T09:36:58.750Z,6.22
2019-05-05T09:39:30.007Z,6.97
2019-05-05T09:42:01.146Z,9.30
2019-05-05T09:44:34.473Z,4.65
2019-05-05T09:47:06.941Z,6.42
2019-05-05T09:49:39.438Z,8.40
2019-05-05T09:52:10.766Z,10.48
2019-05-05T09:54:43.872Z,6.70
2019-05-05T09:57:16.371Z,8.03
2019-05-05T09:59:48.607Z,8.28
2019-05-05T10:02:20.060Z,8.78
2019-05-05T10:04:51.515Z,9.18
2019-05-05T10:07:24.237Z,9.50
2019-05-05T10:09:56.298Z,7.78
2019-05-05T10:12:29.017Z,7.85
2019-05-05T10:15:07.514Z,7.83
2019-05-05T10:17:39.160Z,6.85
2019-05-05T10:20:10.402Z,7.05
2019-05-05T10:22:43.719Z,8.53
2019-05-05T10:25:34.331Z,10.82
2019-05-05T10:28:05.710Z,10.35
2019-05-05T10:30:36.900Z,18.52
2019-05-05T10:33:08.309Z,15.32
2019-05-05T10:35:39.575Z,15.15
2019-05-05T10:38:10.841Z,13.62
2019-05-05T10:40:44.420Z,12.18
2019-05-05T10:43:15.056Z,6.47
2019-05-05T10:45:46.216Z,3.10
2019-05-05T10:48:17.620Z,10.28
2019-05-05T10:50:49.091Z,11.10
2019-05-05T10:53:20.442Z,8.98
2019-05-05T10:55:53.814Z,4.00
2019-05-05T10:58:24.970Z,6.72
2019-05-05T11:00:57.716Z,9.35
2019-05-05T11:03:29.171Z,7.75
2019-05-05T11:06:00.432Z,5.62
2019-05-05T11:08:31.932Z,7.12
2019-05-05T11:11:04.237Z,5.75
2019-05-05T11:13:36.876Z,15.70
2019-05-05T11:16:08.226Z,7.05
2019-05-05T11:18:41.102Z,3.20
2019-05-05T11:21:14.435Z,13.18
2019-05-05T11:23:45.597Z,7.47
2019-05-05T11:26:17.018Z,31.73
2019-05-05T11:28:48.690Z,7.53
2019-05-05T11:31:19.742Z,7.87
2019-05-05T11:33:54.202Z,5.65
2019-05-05T11:36:27.289Z,14.05
2019-05-05T11:38:58.756Z,9.90
2019-05-05T11:41:30.203Z,12.68
2019-05-05T11:44:04.015Z,11.63
2019-05-05T11:46:36.471Z,9.60
2019-05-05T11:49:07.934Z,10.85
2019-05-05T11:51:39.495Z,6.00
2019-05-05T11:54:10.791Z,11.30
2019-05-05T11:56:44.531Z,3.52
2019-05-05T11:59:15.158Z,9.13
2019-05-05T12:01:46.542Z,8.68
2019-05-05T12:04:19.295Z,5.55
2019-05-05T12:06:51.007Z,4.75
2019-05-05T12:09:24.799Z,4.45
2019-05-05T12:11:56.143Z,4.47
2019-05-05T12:14:29.034Z,8.10
2019-05-05T12:17:04.559Z,6.70
2019-05-05T12:19:35.879Z,5.78
2019-05-05T12:22:07.212Z,10.15
2019-05-05T12:24:40.025Z,6.50
2019-05-05T12:27:14.129Z,6.72
2019-05-05T12:29:48.469Z,8.03
2019-05-05T12:32:19.796Z,4.33
2019-05-05T12:34:51.111Z,20.55
2019-05-05T12:37:23.639Z,8.43
2019-05-05T12:39:55.015Z,12.70
2019-05-05T12:42:27.647Z,11.38
2019-05-05T12:45:00.561Z,10.53
2019-05-05T12:47:50.003Z,8.43
2019-05-05T12:50:21.458Z,12.33
2019-05-05T12:52:54.765Z,8.35
2019-05-05T12:55:38.918Z,7.03
2019-05-05T12:57:58.953Z,6.90
2019-05-05T13:00:30.208Z,11.43
2019-05-05T13:03:04.351Z,8.03
2019-05-05T13:05:35.076Z,9.88
2019-05-05T13:08:06.384Z,6.25
2019-05-05T13:10:37.558Z,8.63
2019-05-05T13:13:08.704Z,6.70
2019-05-05T13:15:39.948Z,8.50
2019-05-05T13:18:11.183Z,4.95
2019-05-05T13:20:44.430Z,10.23
2019-05-05T13:23:34.100Z,8.53
2019-05-05T13:26:07.130Z,7.90
2019-05-05T13:28:38.499Z,6.80
2019-05-05T13:31:09.827Z,9.23
2019-05-05T13:33:41.279Z,14.73
2019-05-05T13:36:13.747Z,6.90
2019-05-05T13:38:45.112Z,5.83
2019-05-05T13:41:16.283Z,4.83
2019-05-05T13:43:47.439Z,5.12
2019-05-05T13:46:20.380Z,5.95
2019-05-05T13:48:53.810Z,9.38
2019-05-05T13:51:24.967Z,15.23
2019-05-05T13:53:56.380Z,14.23
2019-05-05T13:56:28.920Z,6.08
2019-05-05T13:59:00.161Z,4.67
2019-05-05T14:01:34.160Z,6.00
2019-05-05T14:04:05.621Z,10.60
2019-05-05T14:06:37.064Z,10.93
2019-05-05T14:09:08.373Z,8.98
2019-05-05T14:11:41.246Z,9.70
2019-05-05T14:14:13.956Z,10.18
2019-05-05T14:16:45.377Z,3.05
2019-05-05T14:19:17.738Z,7.33
2019-05-05T14:21:48.767Z,9.68
2019-05-05T14:24:22.228Z,6.10
2019-05-05T14:26:55.435Z,3.67
2019-05-05T14:29:37.501Z,4.37
2019-05-05T14:32:13.389Z,8.98
2019-05-05T14:34:55.184Z,4.55
2019-05-05T14:37:30.440Z,9.50
2019-05-05T14:42:37.703Z,10.78
2019-05-05T14:45:12.585Z,4.97
2019-05-05T14:47:44.115Z,8.33
2019-05-05T14:50:15.614Z,2.55
2019-05-05T14:52:46.850Z,6.25
2019-05-05T14:55:18.306Z,3.75
2019-05-05T14:57:49.558Z,6.40
2019-05-05T15:00:24.104Z,4.78
2019-05-05T15:02:55.831Z,9.38
2019-05-05T15:05:40.707Z,4.03
2019-05-05T15:08:33.495Z,2.52
2019-05-05T15:11:06.492Z,4.67
2019-05-05T15:13:38.236Z,4.28
2019-05-05T15:16:10.762Z,5.65
2019-05-05T15:18:43.446Z,12.45
2019-05-05T15:21:14.735Z,5.33
2019-05-05T15:23:46.113Z,5.00
2019-05-05T15:26:18.323Z,13.88
2019-05-05T15:29:00.990Z,8.83
2019-05-05T15:31:23.808Z,4.05
2019-05-05T15:33:55.075Z,5.65
2019-05-05T15:36:26.379Z,2.75
2019-05-05T15:38:57.509Z,4.60
2019-05-05T15:41:28.728Z,4.42
2019-05-05T15:43:59.854Z,5.35
2019-05-05T15:46:31.192Z,6.62
2019-05-05T15:49:04.221Z,9.43
2019-05-05T15:51:37.519Z,4.05
2019-05-05T15:54:09.362Z,4.22
2019-05-05T15:57:05.570Z,4.90
2019-05-05T15:59:34.205Z,8.40
2019-05-05T16:02:05.162Z,6.55
2019-05-05T16:04:36.495Z,5.37
2019-05-05T16:07:07.800Z,6.35
2019-05-05T16:09:40.152Z,4.17
2019-05-05T16:12:11.476Z,7.75
2019-05-05T16:14:46.221Z,8.58
2019-05-05T16:17:21.854Z,9.87
2019-05-05T16:19:58.260Z,4.60
2019-05-05T16:22:34.672Z,3.80
2019-05-05T16:25:14.013Z,2.50
2019-05-05T16:27:45.795Z,4.17
2019-05-05T16:30:17.125Z,4.40
2019-05-05T16:32:48.485Z,5.42
2019-05-05T16:35:19.893Z,4.87
2019-05-05T16:37:51.315Z,5.45
2019-05-05T16:40:25.282Z,5.90
2019-05-05T16:42:55.477Z,6.00
2019-05-05T16:45:26.755Z,8.43
2019-05-05T16:47:59.946Z,5.37
2019-05-05T16:50:31.384Z,8.73
2019-05-05T16:53:04.393Z,6.80
2019-05-05T16:55:46.072Z,5.85
2019-05-05T16:58:17.881Z,5.37
2019-05-05T17:00:49.291Z,5.20
2019-05-05T17:03:21.133Z,7.33
2019-05-05T17:05:54.594Z,7.65
2019-05-05T17:08:25.697Z,5.85
2019-05-05T17:11:00.533Z,9.03
2019-05-05T17:13:33.534Z,5.72
2019-05-05T17:16:24.519Z,8.33
2019-05-05T17:19:01.676Z,7.20
2019-05-05T17:21:53.543Z,5.80
2019-05-05T17:24:40.553Z,11.28
2019-05-05T17:27:23.670Z,20.50
2019-05-05T17:29:55.609Z,9.95
2019-05-05T17:32:29.026Z,12.23
2019-05-05T17:35:03.671Z,9.28
2019-05-05T17:37:38.524Z,13.08
2019-05-05T17:40:26.826Z,8.70
2019-05-05T17:43:25.088Z,8.90
2019-05-05T17:46:09.033Z,17.90
2019-05-05T17:48:49.617Z,9.43
2019-05-05T17:51:37.579Z,9.38
2019-05-05T17:54:35.180Z,7.62
2019-05-05T17:57:07.316Z,17.52
2019-05-05T17:59:38.679Z,9.13
2019-05-05T18:02:11.499Z,12.73
2019-05-05T18:04:48.991Z,15.65
2019-05-05T18:07:31.756Z,14.63
2019-05-05T18:10:08.586Z,12.68
2019-05-05T18:12:47.927Z,14.78
2019-05-05T18:15:48.290Z,15.50
2019-05-05T18:18:31.106Z,14.25
2019-05-05T18:21:04.179Z,14.03
2019-05-05T18:23:37.387Z,65.72
2019-05-05T18:26:15.351Z,6.60
2019-05-05T18:28:50.443Z,16.12
2019-05-05T18:31:24.647Z,12.85
2019-05-05T18:33:56.741Z,9.05
2019-05-05T18:36:29.499Z,8.30
2019-05-05T18:39:04.447Z,10.65
2019-05-05T18:41:38.435Z,10.38
2019-05-05T18:44:13.448Z,7.85
2019-05-05T18:46:47.508Z,11.20
2019-05-05T18:49:23.283Z,8.58
2019-05-05T18:51:55.389Z,11.35
2019-05-05T18:54:27.484Z,11.43
2019-05-05T18:57:02.188Z,5.90
2019-05-05T18:59:44.695Z,6.65
2019-05-05T19:02:30.157Z,7.12
2019-05-05T19:05:09.566Z,5.12
2019-05-05T19:08:00.879Z,7.53
2019-05-05T19:10:35.291Z,5.05
2019-05-05T19:13:13.706Z,5.87
2019-05-05T19:15:47.942Z,8.78
2019-05-05T19:18:19.471Z,40.63
2019-05-05T19:20:54.204Z,29.40
2019-05-05T19:23:28.768Z,38.25
2019-05-05T19:26:03.919Z,5.67
2019-05-05T19:28:44.398Z,5.42
2019-05-05T19:31:09.696Z,8.10
2019-05-05T19:33:41.357Z,7.03
2019-05-05T19:36:14.114Z,5.40
2019-05-05T19:38:45.517Z,5.72
2019-05-05T19:41:18.496Z,9.18
2019-05-05T19:43:54.736Z,7.17
2019-05-05T19:46:34.655Z,7.22
2019-05-05T19:49:17.021Z,11.73
2019-05-05T19:51:49.022Z,14.45
2019-05-05T19:54:24.534Z,10.05
2019-05-05T19:56:55.951Z,13.72
2019-05-05T19:59:27.422Z,8.45
2019-05-05T20:02:03.629Z,8.53
2019-05-05T20:04:38.840Z,9.80
2019-05-05T20:07:10.709Z,8.70
2019-05-05T20:09:50.882Z,10.20
2019-05-05T20:12:22.126Z,11.08
2019-05-05T20:14:54.389Z,11.78
2019-05-05T20:17:34.600Z,15.85
2019-05-05T20:20:07.572Z,14.50
2019-05-05T20:22:39.006Z,16.25
2019-05-05T20:25:13.815Z,12.50
2019-05-05T20:27:44.850Z,13.50
2019-05-05T20:30:20.398Z,14.90
2019-05-05T20:32:56.486Z,41.68
2019-05-05T20:35:47.160Z,17.75
2019-05-05T20:38:21.166Z,32.10
2019-05-05T20:41:10.734Z,18.42
2019-05-05T20:43:44.535Z,14.73
2019-05-05T20:46:15.535Z,21.55
2019-05-05T20:48:48.784Z,15.93
2019-05-05T20:51:20.249Z,36.42
2019-05-05T20:53:57.926Z,24.25
2019-05-05T20:56:31.300Z,19.67
2019-05-05T20:59:04.068Z,18.57
2019-05-05T21:01:35.436Z,17.57
2019-05-05T21:04:06.770Z,24.00
2019-05-05T21:06:38.121Z,18.42
2019-05-05T21:09:10.094Z,18.45
2019-05-05T21:11:41.351Z,22.55
2019-05-05T21:14:14.657Z,14.18
2019-05-05T21:16:45.759Z,13.98
2019-05-05T21:19:17.303Z,13.75
2019-05-05T21:21:50.271Z,13.65
2019-05-05T21:24:21.578Z,13.90
2019-05-05T21:26:56.058Z,17.90
2019-05-05T21:29:38.448Z,16.27
2019-05-05T21:32:00.299Z,19.27
2019-05-05T21:34:34.115Z,12.07
2019-05-05T21:37:05.726Z,15.10
2019-05-05T21:39:37.207Z,14.28
2019-05-05T21:42:11.113Z,15.55
2019-05-05T21:44:44.309Z,20.90
2019-05-05T21:47:15.181Z,23.02
2019-05-05T21:49:47.089Z,26.35
2019-05-05T21:52:23.857Z,25.90
2019-05-05T21:54:56.892Z,23.77
2019-05-05T21:57:31.122Z,24.25
2019-05-05T22:00:13.951Z,77.17
2019-05-05T22:02:48.538Z,21.68
2019-05-05T22:05:21.517Z,24.77
2019-05-05T22:07:53.954Z,22.95
2019-05-05T22:10:25.408Z,24.32
2019-05-05T22:12:58.355Z,21.35
2019-05-05T22:15:29.736Z,26.68
2019-05-05T22:18:00.974Z,27.90
2019-05-05T22:20:40.752Z,29.72
2019-05-05T22:23:14.393Z,31.33
2019-05-05T22:25:55.792Z,29.72
2019-05-05T22:28:29.215Z,27.70
2019-05-05T22:31:04.672Z,29.75
2019-05-05T22:33:36.153Z,31.50
2019-05-05T22:36:07.766Z,26.68
2019-05-05T22:38:39.040Z,26.60
2019-05-05T22:41:10.289Z,23.38
2019-05-05T22:43:41.626Z,25.62
2019-05-05T22:46:14.165Z,18.02
2019-05-05T22:48:46.274Z,20.55
2019-05-05T22:51:17.650Z,15.32
2019-05-05T22:53:48.879Z,18.35
2019-05-05T22:56:21.147Z,16.65
2019-05-05T22:58:54.702Z,16.40
2019-05-05T23:01:26.109Z,12.80
2019-05-05T23:04:11.459Z,13.70
2019-05-05T23:06:45.502Z,12.25
2019-05-05T23:09:18.571Z,9.95
2019-05-05T23:11:51.496Z,9.63
2019-05-05T23:14:31.318Z,8.88
2019-05-05T23:17:20.591Z,7.37
2019-05-05T23:20:08.730Z,7.22
2019-05-05T23:22:47.479Z,7.05
2019-05-05T23:25:26.333Z,9.78
2019-05-05T23:27:58.383Z,6.80
2019-05-05T23:30:39.514Z,8.58
2019-05-05T23:33:02.492Z,8.18
2019-05-05T23:35:34.498Z,6.22
2019-05-05T23:38:05.904Z,7.80
2019-05-05T23:40:37.473Z,9.88
2019-05-05T23:43:09.377Z,7.83
2019-05-05T23:45:40.800Z,4.65
2019-05-05T23:48:14.280Z,6.05
2019-05-05T23:50:46.115Z,6.97
2019-05-05T23:53:19.355Z,7.62
2019-05-05T23:55:54.610Z,6.40
2019-05-05T23:58:26.021Z,7.25
